ADDS TAF Board (Experimental) INFO Settings
IDs: Format: Expanded Condensed

KDEN - Denver Intl, CO, US

Issued at 2104 UTC 06 May 2015
Updated at: 2333 UTC 06 May 2015
Time2253Z 07/00Z 07/01Z 07/02Z 07/03Z 07/04Z 07/05Z 07/06Z 07/07Z 07/08Z 07/09Z 07/10Z 07/11Z 07/12Z
Type OBS PRVL
  [TEMP]  
PRVL
  [TEMP]  
PRVL PRVL PRVL PRVL PRVL PRVL PRVL PRVL PRVL PRVL PRVL
VIS 10 >6
  [4]  
>6
  [4]  
>6 >6 >6 >6 >6 >6 >6 >6 1 1 1
CIG 55 100
  [30]  
100
  [30]  
30 30 30 30 12 12 12 12 4 4 4
Cover OVC BKN
  [BKN]  
BKN
  [BKN]  
OVC OVC OVC OVC OVC OVC OVC OVC OVC OVC OVC
FltCat VFR VFR
  [MVFR]  
VFR
  [MVFR]  
MVFR MVFR MVFR MVFR MVFR MVFR MVFR MVFR LIFR LIFR LIFR
WX -- --
  [SHRA]  
--
  [SHRA]  
-- -- -- -- -- -- -- -- BR BR BR
WDir VRB VRB
[VRB]
VRB
[VRB]
10 10 10 10 40 40 40 40 VRB VRB VRB
WSpd 0 5
  [15]  
5
  [15]  
10 10 10 10 6 6 6 6 4 4 4
WGst -- --
  [30]  
--
  [30]  
-- -- -- -- -- -- -- -- -- -- --
R07/25
XWnd VRB 5 5 10 10 10 10 5 5 5 5 VRB VRB VRB
XGst -- 0 0 -- -- -- -- -- -- -- -- -- -- --
HWnd VRB 0 0 2 2 2 2 4 4 4 4 VRB VRB VRB
HGst -- 0 0 -- -- -- -- -- -- -- -- -- -- --
R08/26
XWnd VRB 5 5 10 10 10 10 5 5 5 5 VRB VRB VRB
XGst -- 0 0 -- -- -- -- -- -- -- -- -- -- --
HWnd VRB -0 -0 2 2 2 2 4 4 4 4 VRB VRB VRB
HGst -- 0 0 -- -- -- -- -- -- -- -- -- -- --
R16/34
XWnd VRB -0 -0 2 2 2 2 4 4 4 4 VRB VRB VRB
XGst -- 0 0 -- -- -- -- -- -- -- -- -- -- --
HWnd VRB -5 -5 -10 -10 -10 -10 -5 -5 -5 -5 VRB VRB VRB
HGst -- 0 0 -- -- -- -- -- -- -- -- -- -- --
R17/35
XWnd VRB -0 -0 2 2 2 2 4 4 4 4 VRB VRB VRB
XGst -- 0 0 -- -- -- -- -- -- -- -- -- -- --
HWnd VRB -5 -5 -10 -10 -10 -10 -5 -5 -5 -5 VRB VRB VRB
HGst -- 0 0 -- -- -- -- -- -- -- -- -- -- --

NOTE: TEMPO conditions in [brackets]. Keep in mind TEMPO conditions might be better (lower impact) than prevailing conditions.

Raw TAF
KDEN 062104Z 0621/0724 VRB05KT P6SM FEW030 SCT050 BKN100
  TEMPO 0622/0702 VRB15G30KT 4SM SHRA BKN030
  FM070200 01010KT P6SM SCT015 OVC030
  FM070600 04006KT P6SM SCT006 OVC012
  FM071000 VRB04KT 1SM BR OVC004
  FM071500 13006KT 4SM BR OVC012
  FM071800 07008KT P6SM SCT025 BKN060
  PROB30 0721/0724 VRB15G25KT -SHRA BKN025


Raw METAR
KDEN 062253Z 00000KT 10SM FEW035 BKN055 BKN070 OVC220 17/07 A2970 RMK AO2 SLP005 OCNL LTGICCG DSNT W CB DSNT W SHRA DSNT S AND W T01670067
KDEN 062153Z 00000KT 10SM FEW035 SCT055 BKN110 BKN220 18/08 A2969 RMK AO2 SLP000 SHRA DSNT S T01780078
KDEN 062053Z COR 34004KT 10SM FEW035 SCT055 BKN110 BKN220 17/07 A2969 RMK AO2 SLP003 SHRA DSNT S-SW T01670072 56008

METAR Board
Radar Display
Forecast Discussion

TAF Board Legend

Potential Impact
Threat None Slight Moderate High
Visibility (sm) ≥5.1 5.1>X≥3 3>X≥1 <1
Ceiling (100 ft) ≥30.1 30.1>X≥10 10>X≥5 <5
Wind Speed (kt) <10 10≤X<20 20≤X<30 ≥30
Wind Gust (kt) <15 15≤X<25 25≤X<35 ≥35
Weather No Wx Reported VCTS,-TS,-FZRA,SN TS,FZRA +TS,+FZRA,+SN